Terminal Aerodrome Forecast
Issued by NWS Chicago, IL

Home | Current Version | Previous Version | Graphics & Text | Print | Product List | Glossary Off
Versions: 1 2 3 4 5 6 7 8 9 10 11 12 13 14 15 16 17 18 19 20 21 22 23 24 25 26 27 28 29 30

935
FTUS43 KLOT 252339
TAFRFD
TAF
KRFD 252339Z 2600/2624 28012G20KT P6SM SCT025 BKN050
      TEMPO 2600/2601 BKN025
     FM260130 28012G19KT 6SM -SHRA SCT025 OVC080
     FM260400 28011G17KT P6SM BKN080 BKN120
     FM261500 29017G30KT P6SM SCT050=

USA.gov is the U.S. government's official web portal to all federal, state and local government web resources and services.